sensor_id;sensor_type;location;lat;lon;timestamp;P1;durP1;ratioP1;P2;durP2;ratioP2
79414;SDS011;68864;44.972;19.612;2024-01-07T00:01:08;13.48;;;10.93;;
79414;SDS011;68864;44.972;19.612;2024-01-07T00:03:38;13.20;;;9.57;;
79414;SDS011;68864;44.972;19.612;2024-01-07T00:06:07;11.82;;;8.75;;
79414;SDS011;68864;44.972;19.612;2024-01-07T00:08:34;14.05;;;8.93;;
79414;SDS011;68864;44.972;19.612;2024-01-07T00:11:01;12.02;;;8.48;;
79414;SDS011;68864;44.972;19.612;2024-01-07T00:13:28;12.07;;;8.00;;
79414;SDS011;68864;44.972;19.612;2024-01-07T00:15:55;14.48;;;8.10;;
79414;SDS011;68864;44.972;19.612;2024-01-07T00:18:22;13.85;;;8.57;;
79414;SDS011;68864;44.972;19.612;2024-01-07T00:20:50;14.25;;;7.82;;
79414;SDS011;68864;44.972;19.612;2024-01-07T00:23:17;13.25;;;9.35;;
79414;SDS011;68864;44.972;19.612;2024-01-07T00:25:46;12.43;;;8.10;;
79414;SDS011;68864;44.972;19.612;2024-01-07T00:28:13;12.13;;;5.75;;
79414;SDS011;68864;44.972;19.612;2024-01-07T00:30:40;13.80;;;8.00;;
79414;SDS011;68864;44.972;19.612;2024-01-07T00:33:06;15.77;;;9.68;;
79414;SDS011;68864;44.972;19.612;2024-01-07T00:35:33;12.38;;;8.27;;
79414;SDS011;68864;44.972;19.612;2024-01-07T00:38:02;15.35;;;7.82;;
79414;SDS011;68864;44.972;19.612;2024-01-07T00:40:29;12.38;;;8.00;;
79414;SDS011;68864;44.972;19.612;2024-01-07T00:42:55;14.32;;;9.07;;
79414;SDS011;68864;44.972;19.612;2024-01-07T00:45:22;14.32;;;8.77;;
79414;SDS011;68864;44.972;19.612;2024-01-07T00:47:49;17.15;;;10.75;;
79414;SDS011;68864;44.972;19.612;2024-01-07T00:50:17;12.65;;;5.07;;
79414;SDS011;68864;44.972;19.612;2024-01-07T00:52:44;15.43;;;7.57;;
79414;SDS011;68864;44.972;19.612;2024-01-07T00:57:39;16.52;;;10.52;;
79414;SDS011;68864;44.972;19.612;2024-01-07T01:00:07;15.63;;;9.45;;
79414;SDS011;68864;44.972;19.612;2024-01-07T01:02:34;17.08;;;10.23;;
79414;SDS011;68864;44.972;19.612;2024-01-07T01:05:03;12.93;;;8.98;;
79414;SDS011;68864;44.972;19.612;2024-01-07T01:07:30;10.32;;;5.35;;
79414;SDS011;68864;44.972;19.612;2024-01-07T01:09:57;17.70;;;9.63;;
79414;SDS011;68864;44.972;19.612;2024-01-07T01:12:26;14.70;;;9.00;;
79414;SDS011;68864;44.972;19.612;2024-01-07T01:14:53;14.48;;;9.77;;
79414;SDS011;68864;44.972;19.612;2024-01-07T01:17:20;12.75;;;9.30;;
79414;SDS011;68864;44.972;19.612;2024-01-07T01:19:47;12.43;;;8.38;;
79414;SDS011;68864;44.972;19.612;2024-01-07T01:22:13;12.00;;;4.95;;
79414;SDS011;68864;44.972;19.612;2024-01-07T01:24:40;13.95;;;10.68;;
79414;SDS011;68864;44.972;19.612;2024-01-07T01:27:08;15.07;;;11.80;;
79414;SDS011;68864;44.972;19.612;2024-01-07T01:29:37;13.02;;;9.23;;
79414;SDS011;68864;44.972;19.612;2024-01-07T01:32:05;14.57;;;7.72;;
79414;SDS011;68864;44.972;19.612;2024-01-07T01:34:32;12.40;;;9.45;;
79414;SDS011;68864;44.972;19.612;2024-01-07T01:36:59;12.65;;;8.48;;
79414;SDS011;68864;44.972;19.612;2024-01-07T01:39:26;9.65;;;4.25;;
79414;SDS011;68864;44.972;19.612;2024-01-07T01:41:54;15.32;;;8.75;;
79414;SDS011;68864;44.972;19.612;2024-01-07T01:44:21;12.15;;;8.55;;
79414;SDS011;68864;44.972;19.612;2024-01-07T01:46:50;12.35;;;7.60;;
79414;SDS011;68864;44.972;19.612;2024-01-07T01:49:16;11.23;;;7.40;;
79414;SDS011;68864;44.972;19.612;2024-01-07T01:51:43;13.63;;;8.65;;
79414;SDS011;68864;44.972;19.612;2024-01-07T01:54:11;12.35;;;7.60;;
79414;SDS011;68864;44.972;19.612;2024-01-07T01:56:38;12.48;;;4.85;;
79414;SDS011;68864;44.972;19.612;2024-01-07T01:59:05;11.15;;;7.70;;
79414;SDS011;68864;44.972;19.612;2024-01-07T02:01:33;13.25;;;8.70;;
79414;SDS011;68864;44.972;19.612;2024-01-07T02:04:01;12.90;;;7.70;;
79414;SDS011;68864;44.972;19.612;2024-01-07T02:06:28;14.30;;;7.63;;
79414;SDS011;68864;44.972;19.612;2024-01-07T02:08:55;12.68;;;9.15;;
79414;SDS011;68864;44.972;19.612;2024-01-07T02:11:22;12.27;;;7.20;;
79414;SDS011;68864;44.972;19.612;2024-01-07T02:13:49;14.85;;;7.55;;
79414;SDS011;68864;44.972;19.612;2024-01-07T02:16:16;13.40;;;7.38;;
79414;SDS011;68864;44.972;19.612;2024-01-07T02:18:44;11.93;;;6.97;;
79414;SDS011;68864;44.972;19.612;2024-01-07T02:21:14;10.45;;;7.60;;
79414;SDS011;68864;44.972;19.612;2024-01-07T02:23:41;16.73;;;8.05;;
79414;SDS011;68864;44.972;19.612;2024-01-07T02:26:09;13.15;;;8.93;;
79414;SDS011;68864;44.972;19.612;2024-01-07T02:28:36;11.55;;;7.78;;
79414;SDS011;68864;44.972;19.612;2024-01-07T02:31:03;10.35;;;7.70;;
79414;SDS011;68864;44.972;19.612;2024-01-07T02:33:30;9.65;;;6.45;;
79414;SDS011;68864;44.972;19.612;2024-01-07T02:35:57;10.88;;;6.15;;
79414;SDS011;68864;44.972;19.612;2024-01-07T02:38:24;12.93;;;8.07;;
79414;SDS011;68864;44.972;19.612;2024-01-07T02:40:51;12.82;;;6.88;;
79414;SDS011;68864;44.972;19.612;2024-01-07T02:43:19;11.20;;;6.82;;
79414;SDS011;68864;44.972;19.612;2024-01-07T02:45:46;13.38;;;7.90;;
79414;SDS011;68864;44.972;19.612;2024-01-07T02:48:13;9.68;;;6.40;;
79414;SDS011;68864;44.972;19.612;2024-01-07T02:50:40;11.57;;;7.43;;
79414;SDS011;68864;44.972;19.612;2024-01-07T02:53:07;11.70;;;7.88;;
79414;SDS011;68864;44.972;19.612;2024-01-07T02:55:36;12.02;;;4.63;;
79414;SDS011;68864;44.972;19.612;2024-01-07T02:58:03;13.10;;;7.15;;
79414;SDS011;68864;44.972;19.612;2024-01-07T03:00:31;10.80;;;5.13;;
79414;SDS011;68864;44.972;19.612;2024-01-07T03:02:58;11.95;;;7.40;;
79414;SDS011;68864;44.972;19.612;2024-01-07T03:05:25;17.15;;;7.78;;
79414;SDS011;68864;44.972;19.612;2024-01-07T03:07:54;11.43;;;8.40;;
79414;SDS011;68864;44.972;19.612;2024-01-07T03:10:21;8.40;;;3.25;;
79414;SDS011;68864;44.972;19.612;2024-01-07T03:12:48;13.80;;;7.45;;
79414;SDS011;68864;44.972;19.612;2024-01-07T03:15:15;11.70;;;7.03;;
79414;SDS011;68864;44.972;19.612;2024-01-07T03:17:43;10.25;;;8.23;;
79414;SDS011;68864;44.972;19.612;2024-01-07T03:20:10;13.57;;;7.70;;
79414;SDS011;68864;44.972;19.612;2024-01-07T03:22:37;10.88;;;5.90;;
79414;SDS011;68864;44.972;19.612;2024-01-07T03:25:05;10.65;;;7.32;;
79414;SDS011;68864;44.972;19.612;2024-01-07T03:27:33;13.45;;;7.35;;
79414;SDS011;68864;44.972;19.612;2024-01-07T03:30:00;11.25;;;7.05;;
79414;SDS011;68864;44.972;19.612;2024-01-07T03:32:27;12.57;;;7.38;;
79414;SDS011;68864;44.972;19.612;2024-01-07T03:34:55;13.80;;;7.78;;
79414;SDS011;68864;44.972;19.612;2024-01-07T03:37:22;11.77;;;7.60;;
79414;SDS011;68864;44.972;19.612;2024-01-07T03:39:49;13.18;;;7.97;;
79414;SDS011;68864;44.972;19.612;2024-01-07T03:42:16;11.27;;;3.05;;
79414;SDS011;68864;44.972;19.612;2024-01-07T03:44:43;10.50;;;6.38;;
79414;SDS011;68864;44.972;19.612;2024-01-07T03:47:10;8.90;;;7.40;;
79414;SDS011;68864;44.972;19.612;2024-01-07T03:49:37;8.32;;;6.43;;
79414;SDS011;68864;44.972;19.612;2024-01-07T03:52:05;10.75;;;5.70;;
79414;SDS011;68864;44.972;19.612;2024-01-07T03:54:33;9.55;;;6.85;;
79414;SDS011;68864;44.972;19.612;2024-01-07T03:57:00;8.75;;;6.20;;
79414;SDS011;68864;44.972;19.612;2024-01-07T03:59:27;12.27;;;7.47;;
79414;SDS011;68864;44.972;19.612;2024-01-07T04:01:54;11.57;;;7.38;;
79414;SDS011;68864;44.972;19.612;2024-01-07T04:04:22;10.65;;;7.15;;
79414;SDS011;68864;44.972;19.612;2024-01-07T04:06:49;10.52;;;6.53;;
79414;SDS011;68864;44.972;19.612;2024-01-07T04:09:17;12.32;;;7.18;;
79414;SDS011;68864;44.972;19.612;2024-01-07T04:11:44;10.20;;;7.85;;
79414;SDS011;68864;44.972;19.612;2024-01-07T04:14:13;10.25;;;7.55;;
79414;SDS011;68864;44.972;19.612;2024-01-07T04:16:40;11.38;;;6.60;;
79414;SDS011;68864;44.972;19.612;2024-01-07T04:19:07;12.15;;;9.15;;
79414;SDS011;68864;44.972;19.612;2024-01-07T04:21:34;11.90;;;7.28;;
79414;SDS011;68864;44.972;19.612;2024-01-07T04:24:01;8.00;;;3.00;;
79414;SDS011;68864;44.972;19.612;2024-01-07T04:28:57;11.73;;;8.05;;
79414;SDS011;68864;44.972;19.612;2024-01-07T04:31:23;11.70;;;8.13;;
79414;SDS011;68864;44.972;19.612;2024-01-07T04:33:50;13.70;;;7.13;;
79414;SDS011;68864;44.972;19.612;2024-01-07T04:36:17;11.70;;;6.47;;
79414;SDS011;68864;44.972;19.612;2024-01-07T04:38:44;17.77;;;8.50;;
79414;SDS011;68864;44.972;19.612;2024-01-07T04:41:11;10.02;;;6.88;;
79414;SDS011;68864;44.972;19.612;2024-01-07T04:43:39;14.27;;;10.50;;
79414;SDS011;68864;44.972;19.612;2024-01-07T04:46:08;12.60;;;6.95;;
79414;SDS011;68864;44.972;19.612;2024-01-07T04:48:36;9.88;;;6.68;;
79414;SDS011;68864;44.972;19.612;2024-01-07T04:51:03;10.10;;;3.80;;
79414;SDS011;68864;44.972;19.612;2024-01-07T04:53:30;15.35;;;8.68;;
79414;SDS011;68864;44.972;19.612;2024-01-07T04:55:57;11.82;;;6.68;;
79414;SDS011;68864;44.972;19.612;2024-01-07T04:58:23;9.52;;;5.97;;
79414;SDS011;68864;44.972;19.612;2024-01-07T05:00:51;8.55;;;2.83;;
79414;SDS011;68864;44.972;19.612;2024-01-07T05:03:18;10.15;;;7.60;;
79414;SDS011;68864;44.972;19.612;2024-01-07T05:05:45;10.68;;;6.97;;
79414;SDS011;68864;44.972;19.612;2024-01-07T05:08:12;11.27;;;6.82;;
79414;SDS011;68864;44.972;19.612;2024-01-07T05:10:39;11.18;;;7.25;;
79414;SDS011;68864;44.972;19.612;2024-01-07T05:13:05;11.30;;;7.88;;
79414;SDS011;68864;44.972;19.612;2024-01-07T05:15:32;12.07;;;6.60;;
79414;SDS011;68864;44.972;19.612;2024-01-07T05:18:01;10.60;;;6.53;;
79414;SDS011;68864;44.972;19.612;2024-01-07T05:20:28;10.95;;;6.70;;
79414;SDS011;68864;44.972;19.612;2024-01-07T05:22:54;10.32;;;6.57;;
79414;SDS011;68864;44.972;19.612;2024-01-07T05:25:21;11.55;;;9.48;;
79414;SDS011;68864;44.972;19.612;2024-01-07T05:27:48;11.73;;;6.90;;
79414;SDS011;68864;44.972;19.612;2024-01-07T05:30:15;10.68;;;6.30;;
79414;SDS011;68864;44.972;19.612;2024-01-07T05:32:42;12.50;;;9.80;;
79414;SDS011;68864;44.972;19.612;2024-01-07T05:35:11;12.48;;;7.07;;
79414;SDS011;68864;44.972;19.612;2024-01-07T05:37:38;9.80;;;6.68;;
79414;SDS011;68864;44.972;19.612;2024-01-07T05:40:05;12.73;;;6.82;;
79414;SDS011;68864;44.972;19.612;2024-01-07T05:42:33;10.75;;;6.43;;
79414;SDS011;68864;44.972;19.612;2024-01-07T05:45:00;8.20;;;5.82;;
79414;SDS011;68864;44.972;19.612;2024-01-07T05:47:27;10.65;;;6.03;;
79414;SDS011;68864;44.972;19.612;2024-01-07T05:54:51;13.13;;;6.65;;
79414;SDS011;68864;44.972;19.612;2024-01-07T05:57:18;11.57;;;8.05;;
79414;SDS011;68864;44.972;19.612;2024-01-07T05:59:45;9.68;;;6.85;;
79414;SDS011;68864;44.972;19.612;2024-01-07T06:02:12;9.20;;;6.22;;
79414;SDS011;68864;44.972;19.612;2024-01-07T06:04:39;7.80;;;2.22;;
79414;SDS011;68864;44.972;19.612;2024-01-07T06:07:06;10.00;;;5.57;;
79414;SDS011;68864;44.972;19.612;2024-01-07T06:09:34;7.78;;;6.50;;
79414;SDS011;68864;44.972;19.612;2024-01-07T06:12:01;8.88;;;5.65;;
79414;SDS011;68864;44.972;19.612;2024-01-07T06:21:48;11.75;;;5.88;;
79414;SDS011;68864;44.972;19.612;2024-01-07T06:24:15;10.90;;;7.00;;
79414;SDS011;68864;44.972;19.612;2024-01-07T06:26:44;11.80;;;7.20;;
79414;SDS011;68864;44.972;19.612;2024-01-07T06:29:10;10.82;;;6.72;;
79414;SDS011;68864;44.972;19.612;2024-01-07T06:31:42;11.43;;;7.38;;
79414;SDS011;68864;44.972;19.612;2024-01-07T06:34:09;10.35;;;6.78;;
79414;SDS011;68864;44.972;19.612;2024-01-07T06:36:38;13.43;;;7.85;;
79414;SDS011;68864;44.972;19.612;2024-01-07T06:39:05;9.38;;;6.65;;
79414;SDS011;68864;44.972;19.612;2024-01-07T06:41:33;10.82;;;6.93;;
79414;SDS011;68864;44.972;19.612;2024-01-07T06:44:01;10.63;;;7.47;;
79414;SDS011;68864;44.972;19.612;2024-01-07T06:46:28;14.55;;;5.03;;
79414;SDS011;68864;44.972;19.612;2024-01-07T06:48:55;12.38;;;8.48;;
79414;SDS011;68864;44.972;19.612;2024-01-07T06:51:22;14.95;;;10.13;;
79414;SDS011;68864;44.972;19.612;2024-01-07T06:53:49;16.73;;;9.73;;
79414;SDS011;68864;44.972;19.612;2024-01-07T06:56:16;18.50;;;9.60;;
79414;SDS011;68864;44.972;19.612;2024-01-07T06:58:43;21.02;;;11.68;;
79414;SDS011;68864;44.972;19.612;2024-01-07T07:01:11;18.23;;;10.77;;
79414;SDS011;68864;44.972;19.612;2024-01-07T07:03:39;16.63;;;11.00;;
79414;SDS011;68864;44.972;19.612;2024-01-07T07:06:06;19.30;;;11.32;;
79414;SDS011;68864;44.972;19.612;2024-01-07T07:08:33;17.50;;;11.23;;
79414;SDS011;68864;44.972;19.612;2024-01-07T07:11:00;22.52;;;12.65;;
79414;SDS011;68864;44.972;19.612;2024-01-07T07:13:27;24.17;;;15.27;;
79414;SDS011;68864;44.972;19.612;2024-01-07T07:15:54;25.92;;;16.35;;
79414;SDS011;68864;44.972;19.612;2024-01-07T07:18:22;20.83;;;13.23;;
79414;SDS011;68864;44.972;19.612;2024-01-07T07:20:49;20.92;;;15.73;;
79414;SDS011;68864;44.972;19.612;2024-01-07T07:23:16;21.70;;;14.95;;
79414;SDS011;68864;44.972;19.612;2024-01-07T07:25:43;26.73;;;16.17;;
79414;SDS011;68864;44.972;19.612;2024-01-07T07:28:11;33.33;;;16.08;;
79414;SDS011;68864;44.972;19.612;2024-01-07T07:30:37;24.20;;;13.98;;
79414;SDS011;68864;44.972;19.612;2024-01-07T07:33:04;20.00;;;11.98;;
79414;SDS011;68864;44.972;19.612;2024-01-07T07:35:33;20.55;;;11.30;;
79414;SDS011;68864;44.972;19.612;2024-01-07T07:38:00;20.25;;;13.80;;
79414;SDS011;68864;44.972;19.612;2024-01-07T07:40:26;19.42;;;12.48;;
79414;SDS011;68864;44.972;19.612;2024-01-07T07:42:53;19.05;;;11.70;;
79414;SDS011;68864;44.972;19.612;2024-01-07T07:45:20;20.15;;;8.30;;
79414;SDS011;68864;44.972;19.612;2024-01-07T07:47:47;16.58;;;9.65;;
79414;SDS011;68864;44.972;19.612;2024-01-07T07:50:14;17.80;;;11.38;;
79414;SDS011;68864;44.972;19.612;2024-01-07T07:52:42;13.82;;;9.68;;
79414;SDS011;68864;44.972;19.612;2024-01-07T07:55:10;14.70;;;9.88;;
79414;SDS011;68864;44.972;19.612;2024-01-07T07:57:37;13.80;;;9.70;;
79414;SDS011;68864;44.972;19.612;2024-01-07T08:00:04;22.23;;;11.85;;
79414;SDS011;68864;44.972;19.612;2024-01-07T08:02:32;19.75;;;13.23;;
79414;SDS011;68864;44.972;19.612;2024-01-07T08:04:59;24.45;;;14.68;;
79414;SDS011;68864;44.972;19.612;2024-01-07T08:07:26;25.30;;;15.20;;
79414;SDS011;68864;44.972;19.612;2024-01-07T08:09:54;18.45;;;11.25;;
79414;SDS011;68864;44.972;19.612;2024-01-07T08:12:23;23.20;;;13.52;;
79414;SDS011;68864;44.972;19.612;2024-01-07T08:14:50;22.90;;;12.38;;
79414;SDS011;68864;44.972;19.612;2024-01-07T08:17:17;15.50;;;11.13;;
79414;SDS011;68864;44.972;19.612;2024-01-07T08:19:43;20.90;;;15.52;;
79414;SDS011;68864;44.972;19.612;2024-01-07T08:22:10;24.08;;;15.20;;
79414;SDS011;68864;44.972;19.612;2024-01-07T08:24:37;18.30;;;12.57;;
79414;SDS011;68864;44.972;19.612;2024-01-07T08:27:06;22.55;;;13.23;;
79414;SDS011;68864;44.972;19.612;2024-01-07T08:29:33;19.25;;;14.00;;
79414;SDS011;68864;44.972;19.612;2024-01-07T08:32:00;34.70;;;16.05;;
79414;SDS011;68864;44.972;19.612;2024-01-07T08:34:27;26.55;;;10.85;;
79414;SDS011;68864;44.972;19.612;2024-01-07T08:36:54;35.70;;;18.10;;
79414;SDS011;68864;44.972;19.612;2024-01-07T08:39:21;32.63;;;15.00;;
79414;SDS011;68864;44.972;19.612;2024-01-07T08:41:48;38.70;;;13.45;;
79414;SDS011;68864;44.972;19.612;2024-01-07T08:44:16;23.00;;;11.48;;
79414;SDS011;68864;44.972;19.612;2024-01-07T08:46:43;22.20;;;12.90;;
79414;SDS011;68864;44.972;19.612;2024-01-07T08:49:10;17.02;;;11.95;;
79414;SDS011;68864;44.972;19.612;2024-01-07T08:51:38;15.13;;;10.77;;
79414;SDS011;68864;44.972;19.612;2024-01-07T08:54:05;17.60;;;10.75;;
79414;SDS011;68864;44.972;19.612;2024-01-07T08:56:32;22.25;;;12.23;;
79414;SDS011;68864;44.972;19.612;2024-01-07T08:58:59;39.25;;;21.23;;
79414;SDS011;68864;44.972;19.612;2024-01-07T09:01:27;30.00;;;18.75;;
79414;SDS011;68864;44.972;19.612;2024-01-07T09:03:54;23.52;;;14.35;;
79414;SDS011;68864;44.972;19.612;2024-01-07T09:06:21;23.77;;;13.15;;
79414;SDS011;68864;44.972;19.612;2024-01-07T09:08:48;23.60;;;14.90;;
79414;SDS011;68864;44.972;19.612;2024-01-07T09:11:18;20.70;;;14.15;;
79414;SDS011;68864;44.972;19.612;2024-01-07T09:13:45;23.85;;;9.48;;
79414;SDS011;68864;44.972;19.612;2024-01-07T09:16:14;27.00;;;17.80;;
79414;SDS011;68864;44.972;19.612;2024-01-07T09:18:42;61.45;;;22.13;;
79414;SDS011;68864;44.972;19.612;2024-01-07T09:21:10;29.25;;;17.95;;
79414;SDS011;68864;44.972;19.612;2024-01-07T09:23:36;32.35;;;20.38;;
79414;SDS011;68864;44.972;19.612;2024-01-07T09:26:03;34.63;;;20.77;;
79414;SDS011;68864;44.972;19.612;2024-01-07T09:28:30;34.88;;;23.00;;
79414;SDS011;68864;44.972;19.612;2024-01-07T09:30:57;27.70;;;17.63;;
79414;SDS011;68864;44.972;19.612;2024-01-07T09:33:24;34.13;;;23.48;;
79414;SDS011;68864;44.972;19.612;2024-01-07T09:35:52;49.00;;;27.95;;
79414;SDS011;68864;44.972;19.612;2024-01-07T09:38:20;43.95;;;27.23;;
79414;SDS011;68864;44.972;19.612;2024-01-07T09:40:47;40.40;;;25.75;;
79414;SDS011;68864;44.972;19.612;2024-01-07T09:43:14;41.03;;;26.17;;
79414;SDS011;68864;44.972;19.612;2024-01-07T09:45:41;42.33;;;26.85;;
79414;SDS011;68864;44.972;19.612;2024-01-07T09:48:12;114.32;;;42.72;;
79414;SDS011;68864;44.972;19.612;2024-01-07T09:53:07;45.35;;;26.92;;
79414;SDS011;68864;44.972;19.612;2024-01-07T09:55:45;50.95;;;31.23;;
79414;SDS011;68864;44.972;19.612;2024-01-07T09:58:17;48.70;;;29.23;;
79414;SDS011;68864;44.972;19.612;2024-01-07T10:00:44;60.53;;;36.92;;
79414;SDS011;68864;44.972;19.612;2024-01-07T10:03:11;53.65;;;35.72;;
79414;SDS011;68864;44.972;19.612;2024-01-07T10:08:06;46.75;;;29.15;;
79414;SDS011;68864;44.972;19.612;2024-01-07T10:10:35;34.30;;;22.88;;
79414;SDS011;68864;44.972;19.612;2024-01-07T10:13:03;38.50;;;24.65;;
79414;SDS011;68864;44.972;19.612;2024-01-07T10:15:31;35.65;;;22.13;;
79414;SDS011;68864;44.972;19.612;2024-01-07T10:18:02;31.60;;;24.80;;
79414;SDS011;68864;44.972;19.612;2024-01-07T10:20:31;26.05;;;13.88;;
79414;SDS011;68864;44.972;19.612;2024-01-07T10:22:58;32.40;;;22.25;;
79414;SDS011;68864;44.972;19.612;2024-01-07T10:25:27;27.27;;;20.77;;
79414;SDS011;68864;44.972;19.612;2024-01-07T10:27:54;32.92;;;22.70;;
79414;SDS011;68864;44.972;19.612;2024-01-07T10:30:25;35.88;;;20.60;;
79414;SDS011;68864;44.972;19.612;2024-01-07T10:32:54;31.67;;;22.52;;
79414;SDS011;68864;44.972;19.612;2024-01-07T10:35:22;31.77;;;21.58;;
79414;SDS011;68864;44.972;19.612;2024-01-07T10:37:53;23.38;;;13.60;;
79414;SDS011;68864;44.972;19.612;2024-01-07T10:40:21;30.40;;;21.25;;
79414;SDS011;68864;44.972;19.612;2024-01-07T10:42:50;24.67;;;18.70;;
79414;SDS011;68864;44.972;19.612;2024-01-07T10:45:18;25.98;;;19.55;;
79414;SDS011;68864;44.972;19.612;2024-01-07T10:47:47;24.50;;;18.02;;
79414;SDS011;68864;44.972;19.612;2024-01-07T10:50:15;27.08;;;18.70;;
79414;SDS011;68864;44.972;19.612;2024-01-07T10:52:45;29.67;;;20.77;;
79414;SDS011;68864;44.972;19.612;2024-01-07T10:55:17;21.88;;;16.10;;
79414;SDS011;68864;44.972;19.612;2024-01-07T10:57:46;22.02;;;15.98;;
79414;SDS011;68864;44.972;19.612;2024-01-07T11:00:16;21.50;;;15.70;;
79414;SDS011;68864;44.972;19.612;2024-01-07T11:02:48;26.08;;;17.23;;
79414;SDS011;68864;44.972;19.612;2024-01-07T11:05:22;36.33;;;21.38;;
79414;SDS011;68864;44.972;19.612;2024-01-07T11:07:55;33.63;;;20.55;;
79414;SDS011;68864;44.972;19.612;2024-01-07T11:10:30;28.70;;;18.92;;
79414;SDS011;68864;44.972;19.612;2024-01-07T11:13:05;25.17;;;16.38;;
79414;SDS011;68864;44.972;19.612;2024-01-07T11:18:27;21.63;;;13.52;;
79414;SDS011;68864;44.972;19.612;2024-01-07T11:20:58;21.05;;;13.85;;
79414;SDS011;68864;44.972;19.612;2024-01-07T11:23:27;22.40;;;13.07;;
79414;SDS011;68864;44.972;19.612;2024-01-07T11:25:58;22.90;;;15.93;;
79414;SDS011;68864;44.972;19.612;2024-01-07T11:31:13;20.20;;;15.43;;
79414;SDS011;68864;44.972;19.612;2024-01-07T11:33:41;25.75;;;16.70;;
79414;SDS011;68864;44.972;19.612;2024-01-07T11:36:10;24.75;;;17.27;;
79414;SDS011;68864;44.972;19.612;2024-01-07T11:38:41;31.60;;;21.33;;
79414;SDS011;68864;44.972;19.612;2024-01-07T11:41:09;28.98;;;18.80;;
79414;SDS011;68864;44.972;19.612;2024-01-07T11:43:38;19.63;;;15.00;;
79414;SDS011;68864;44.972;19.612;2024-01-07T11:46:20;18.52;;;13.82;;
79414;SDS011;68864;44.972;19.612;2024-01-07T11:48:48;19.17;;;14.02;;
79414;SDS011;68864;44.972;19.612;2024-01-07T11:51:15;18.90;;;13.40;;
79414;SDS011;68864;44.972;19.612;2024-01-07T11:53:44;20.13;;;14.00;;
79414;SDS011;68864;44.972;19.612;2024-01-07T11:56:12;23.98;;;16.83;;
79414;SDS011;68864;44.972;19.612;2024-01-07T11:58:40;29.08;;;19.38;;
79414;SDS011;68864;44.972;19.612;2024-01-07T12:01:07;34.80;;;23.65;;
79414;SDS011;68864;44.972;19.612;2024-01-07T12:03:35;37.92;;;25.60;;
79414;SDS011;68864;44.972;19.612;2024-01-07T12:06:02;35.65;;;21.85;;
79414;SDS011;68864;44.972;19.612;2024-01-07T12:10:56;45.25;;;28.10;;
79414;SDS011;68864;44.972;19.612;2024-01-07T12:13:24;41.08;;;29.63;;
79414;SDS011;68864;44.972;19.612;2024-01-07T12:15:51;34.60;;;24.95;;
79414;SDS011;68864;44.972;19.612;2024-01-07T12:18:19;25.50;;;18.65;;
79414;SDS011;68864;44.972;19.612;2024-01-07T12:20:55;26.52;;;17.92;;
79414;SDS011;68864;44.972;19.612;2024-01-07T12:23:23;26.40;;;18.02;;
79414;SDS011;68864;44.972;19.612;2024-01-07T12:25:51;31.63;;;16.05;;
79414;SDS011;68864;44.972;19.612;2024-01-07T12:28:18;31.65;;;20.20;;
79414;SDS011;68864;44.972;19.612;2024-01-07T12:30:45;35.67;;;16.08;;
79414;SDS011;68864;44.972;19.612;2024-01-07T12:33:15;36.67;;;19.80;;
79414;SDS011;68864;44.972;19.612;2024-01-07T12:35:44;50.33;;;28.88;;
79414;SDS011;68864;44.972;19.612;2024-01-07T12:38:13;43.83;;;22.45;;
79414;SDS011;68864;44.972;19.612;2024-01-07T12:40:40;39.30;;;24.15;;
79414;SDS011;68864;44.972;19.612;2024-01-07T12:43:07;38.53;;;26.98;;
79414;SDS011;68864;44.972;19.612;2024-01-07T12:45:34;39.25;;;26.02;;
79414;SDS011;68864;44.972;19.612;2024-01-07T12:48:01;43.03;;;27.88;;
79414;SDS011;68864;44.972;19.612;2024-01-07T12:50:28;41.63;;;26.85;;
79414;SDS011;68864;44.972;19.612;2024-01-07T12:52:56;38.42;;;25.65;;
79414;SDS011;68864;44.972;19.612;2024-01-07T12:55:26;48.55;;;37.17;;
79414;SDS011;68864;44.972;19.612;2024-01-07T12:57:54;46.55;;;32.30;;
79414;SDS011;68864;44.972;19.612;2024-01-07T13:00:21;46.25;;;29.50;;
79414;SDS011;68864;44.972;19.612;2024-01-07T13:02:48;40.80;;;28.77;;
79414;SDS011;68864;44.972;19.612;2024-01-07T13:07:42;40.05;;;26.38;;
79414;SDS011;68864;44.972;19.612;2024-01-07T13:10:09;30.98;;;18.90;;
79414;SDS011;68864;44.972;19.612;2024-01-07T13:12:38;20.30;;;14.27;;
79414;SDS011;68864;44.972;19.612;2024-01-07T13:15:05;23.30;;;15.98;;
79414;SDS011;68864;44.972;19.612;2024-01-07T13:17:33;23.33;;;15.90;;
79414;SDS011;68864;44.972;19.612;2024-01-07T13:20:00;22.42;;;12.57;;
79414;SDS011;68864;44.972;19.612;2024-01-07T13:22:27;21.90;;;15.98;;
79414;SDS011;68864;44.972;19.612;2024-01-07T13:24:54;24.35;;;19.25;;
79414;SDS011;68864;44.972;19.612;2024-01-07T13:27:22;21.23;;;15.95;;
79414;SDS011;68864;44.972;19.612;2024-01-07T13:29:50;17.90;;;14.38;;
79414;SDS011;68864;44.972;19.612;2024-01-07T13:32:17;20.95;;;16.48;;
79414;SDS011;68864;44.972;19.612;2024-01-07T13:34:44;15.27;;;12.07;;
79414;SDS011;68864;44.972;19.612;2024-01-07T13:37:11;19.63;;;14.65;;
79414;SDS011;68864;44.972;19.612;2024-01-07T13:39:37;19.45;;;16.90;;
79414;SDS011;68864;44.972;19.612;2024-01-07T13:42:05;21.75;;;15.63;;
79414;SDS011;68864;44.972;19.612;2024-01-07T13:44:32;19.30;;;14.05;;
79414;SDS011;68864;44.972;19.612;2024-01-07T13:47:01;21.08;;;14.18;;
79414;SDS011;68864;44.972;19.612;2024-01-07T13:49:28;22.85;;;15.95;;
79414;SDS011;68864;44.972;19.612;2024-01-07T13:51:55;21.83;;;15.32;;
79414;SDS011;68864;44.972;19.612;2024-01-07T13:54:21;19.23;;;15.52;;
79414;SDS011;68864;44.972;19.612;2024-01-07T13:56:48;18.58;;;13.75;;
79414;SDS011;68864;44.972;19.612;2024-01-07T14:01:42;15.35;;;12.75;;
79414;SDS011;68864;44.972;19.612;2024-01-07T14:04:11;20.35;;;13.38;;
79414;SDS011;68864;44.972;19.612;2024-01-07T14:06:38;17.15;;;12.00;;
79414;SDS011;68864;44.972;19.612;2024-01-07T14:09:05;15.55;;;11.25;;
79414;SDS011;68864;44.972;19.612;2024-01-07T14:11:34;13.68;;;10.98;;
79414;SDS011;68864;44.972;19.612;2024-01-07T14:14:01;13.40;;;7.40;;
79414;SDS011;68864;44.972;19.612;2024-01-07T14:16:28;14.93;;;11.02;;
79414;SDS011;68864;44.972;19.612;2024-01-07T14:18:55;14.65;;;11.38;;
79414;SDS011;68864;44.972;19.612;2024-01-07T14:21:23;17.17;;;13.88;;
79414;SDS011;68864;44.972;19.612;2024-01-07T14:23:50;18.33;;;13.25;;
79414;SDS011;68864;44.972;19.612;2024-01-07T14:26:17;20.52;;;16.15;;
79414;SDS011;68864;44.972;19.612;2024-01-07T14:28:48;17.40;;;12.27;;
79414;SDS011;68864;44.972;19.612;2024-01-07T14:31:15;16.98;;;13.13;;
79414;SDS011;68864;44.972;19.612;2024-01-07T14:33:42;14.73;;;9.65;;
79414;SDS011;68864;44.972;19.612;2024-01-07T14:36:09;16.85;;;10.48;;
79414;SDS011;68864;44.972;19.612;2024-01-07T14:38:43;17.48;;;11.98;;
79414;SDS011;68864;44.972;19.612;2024-01-07T14:41:10;15.48;;;12.55;;
79414;SDS011;68864;44.972;19.612;2024-01-07T14:43:37;13.07;;;10.75;;
79414;SDS011;68864;44.972;19.612;2024-01-07T14:48:32;14.70;;;11.80;;
79414;SDS011;68864;44.972;19.612;2024-01-07T14:50:59;14.18;;;11.63;;
79414;SDS011;68864;44.972;19.612;2024-01-07T14:53:26;13.60;;;10.75;;
79414;SDS011;68864;44.972;19.612;2024-01-07T14:55:56;13.45;;;11.25;;